sensor_id;sensor_type;location;lat;lon;timestamp;temperature;humidity
11474;DHT22;5793;52.238;13.438;2024-01-25T00:01:02;8.10;99.90
11474;DHT22;5793;52.238;13.438;2024-01-25T00:03:29;8.10;99.90
11474;DHT22;5793;52.238;13.438;2024-01-25T00:05:59;8.10;99.90
11474;DHT22;5793;52.238;13.438;2024-01-25T00:08:27;8.10;99.90
11474;DHT22;5793;52.238;13.438;2024-01-25T00:10:55;8.00;99.90
11474;DHT22;5793;52.238;13.438;2024-01-25T00:13:23;8.10;99.90
11474;DHT22;5793;52.238;13.438;2024-01-25T00:15:52;8.10;99.90
11474;DHT22;5793;52.238;13.438;2024-01-25T00:18:19;8.10;99.90
11474;DHT22;5793;52.238;13.438;2024-01-25T00:20:47;8.10;99.90
11474;DHT22;5793;52.238;13.438;2024-01-25T00:23:17;8.20;99.90
11474;DHT22;5793;52.238;13.438;2024-01-25T00:25:45;8.20;99.90
11474;DHT22;5793;52.238;13.438;2024-01-25T00:28:13;8.10;99.90
11474;DHT22;5793;52.238;13.438;2024-01-25T00:30:41;8.10;99.90
11474;DHT22;5793;52.238;13.438;2024-01-25T00:33:08;8.20;99.90
11474;DHT22;5793;52.238;13.438;2024-01-25T00:35:37;8.20;99.90
11474;DHT22;5793;52.238;13.438;2024-01-25T00:38:05;8.10;99.90
11474;DHT22;5793;52.238;13.438;2024-01-25T00:40:35;8.20;99.90
11474;DHT22;5793;52.238;13.438;2024-01-25T00:43:04;8.20;99.90
11474;DHT22;5793;52.238;13.438;2024-01-25T00:45:32;8.20;99.90
11474;DHT22;5793;52.238;13.438;2024-01-25T00:48:01;8.20;99.90
11474;DHT22;5793;52.238;13.438;2024-01-25T00:50:29;8.20;99.90
11474;DHT22;5793;52.238;13.438;2024-01-25T00:52:57;8.20;99.90
11474;DHT22;5793;52.238;13.438;2024-01-25T00:55:26;8.20;99.90
11474;DHT22;5793;52.238;13.438;2024-01-25T00:57:56;8.20;99.90
11474;DHT22;5793;52.238;13.438;2024-01-25T01:00:24;8.20;99.90
11474;DHT22;5793;52.238;13.438;2024-01-25T01:02:53;8.20;99.90
11474;DHT22;5793;52.238;13.438;2024-01-25T01:05:22;8.20;99.90
11474;DHT22;5793;52.238;13.438;2024-01-25T01:07:50;8.20;99.90
11474;DHT22;5793;52.238;13.438;2024-01-25T01:10:18;8.20;99.90
11474;DHT22;5793;52.238;13.438;2024-01-25T01:12:46;8.20;99.90
11474;DHT22;5793;52.238;13.438;2024-01-25T01:15:15;8.20;99.90
11474;DHT22;5793;52.238;13.438;2024-01-25T01:17:44;8.20;99.90
11474;DHT22;5793;52.238;13.438;2024-01-25T01:20:12;8.20;99.90
11474;DHT22;5793;52.238;13.438;2024-01-25T01:22:40;8.30;99.90
11474;DHT22;5793;52.238;13.438;2024-01-25T01:25:08;8.20;99.90
11474;DHT22;5793;52.238;13.438;2024-01-25T01:27:37;8.30;99.90
11474;DHT22;5793;52.238;13.438;2024-01-25T01:30:06;8.30;99.90
11474;DHT22;5793;52.238;13.438;2024-01-25T01:32:36;8.40;99.90
11474;DHT22;5793;52.238;13.438;2024-01-25T01:35:05;8.20;99.90
11474;DHT22;5793;52.238;13.438;2024-01-25T01:37:33;8.30;99.90
11474;DHT22;5793;52.238;13.438;2024-01-25T01:40:01;8.30;99.90
11474;DHT22;5793;52.238;13.438;2024-01-25T01:42:30;8.20;99.90
11474;DHT22;5793;52.238;13.438;2024-01-25T01:44:59;8.30;99.90
11474;DHT22;5793;52.238;13.438;2024-01-25T01:47:27;8.20;99.90
11474;DHT22;5793;52.238;13.438;2024-01-25T01:49:57;8.20;99.90
11474;DHT22;5793;52.238;13.438;2024-01-25T01:52:25;8.20;99.90
11474;DHT22;5793;52.238;13.438;2024-01-25T01:54:53;8.20;99.90
11474;DHT22;5793;52.238;13.438;2024-01-25T01:57:21;8.20;99.90
11474;DHT22;5793;52.238;13.438;2024-01-25T01:59:49;8.20;99.90
11474;DHT22;5793;52.238;13.438;2024-01-25T02:02:18;8.20;99.90
11474;DHT22;5793;52.238;13.438;2024-01-25T02:04:46;8.20;99.90
11474;DHT22;5793;52.238;13.438;2024-01-25T02:07:15;8.20;99.90
11474;DHT22;5793;52.238;13.438;2024-01-25T02:09:43;8.30;99.90
11474;DHT22;5793;52.238;13.438;2024-01-25T02:12:15;8.20;99.90
11474;DHT22;5793;52.238;13.438;2024-01-25T02:14:43;8.20;99.90
11474;DHT22;5793;52.238;13.438;2024-01-25T02:17:11;8.10;99.90
11474;DHT22;5793;52.238;13.438;2024-01-25T02:19:39;8.10;99.90
11474;DHT22;5793;52.238;13.438;2024-01-25T02:22:07;8.20;99.90
11474;DHT22;5793;52.238;13.438;2024-01-25T02:24:36;8.20;99.90
11474;DHT22;5793;52.238;13.438;2024-01-25T02:27:04;8.20;99.90
11474;DHT22;5793;52.238;13.438;2024-01-25T02:29:32;8.20;99.90
11474;DHT22;5793;52.238;13.438;2024-01-25T02:32:00;8.20;99.90
11474;DHT22;5793;52.238;13.438;2024-01-25T02:34:27;8.10;99.90
11474;DHT22;5793;52.238;13.438;2024-01-25T02:36:55;8.10;99.90
11474;DHT22;5793;52.238;13.438;2024-01-25T02:39:23;8.10;99.90
11474;DHT22;5793;52.238;13.438;2024-01-25T02:41:52;8.10;99.90
11474;DHT22;5793;52.238;13.438;2024-01-25T02:44:20;8.10;99.90
11474;DHT22;5793;52.238;13.438;2024-01-25T02:46:48;8.10;99.90
11474;DHT22;5793;52.238;13.438;2024-01-25T02:49:16;8.10;99.90
11474;DHT22;5793;52.238;13.438;2024-01-25T02:51:44;8.10;99.90
11474;DHT22;5793;52.238;13.438;2024-01-25T02:54:12;8.10;99.90
11474;DHT22;5793;52.238;13.438;2024-01-25T02:56:40;8.20;99.90
11474;DHT22;5793;52.238;13.438;2024-01-25T02:59:09;8.20;99.90
11474;DHT22;5793;52.238;13.438;2024-01-25T03:01:38;8.20;99.90
11474;DHT22;5793;52.238;13.438;2024-01-25T03:04:06;8.20;99.90
11474;DHT22;5793;52.238;13.438;2024-01-25T03:06:34;8.20;99.90
11474;DHT22;5793;52.238;13.438;2024-01-25T03:09:02;8.30;99.90
11474;DHT22;5793;52.238;13.438;2024-01-25T03:11:31;8.20;99.90
11474;DHT22;5793;52.238;13.438;2024-01-25T03:13:59;8.10;99.90
11474;DHT22;5793;52.238;13.438;2024-01-25T03:16:28;8.10;99.90
11474;DHT22;5793;52.238;13.438;2024-01-25T03:18:56;8.10;99.90
11474;DHT22;5793;52.238;13.438;2024-01-25T03:21:24;8.10;99.90
11474;DHT22;5793;52.238;13.438;2024-01-25T03:23:52;8.10;99.90
11474;DHT22;5793;52.238;13.438;2024-01-25T03:26:19;8.00;99.90
11474;DHT22;5793;52.238;13.438;2024-01-25T03:28:47;8.10;99.90
11474;DHT22;5793;52.238;13.438;2024-01-25T03:31:15;8.10;99.90
11474;DHT22;5793;52.238;13.438;2024-01-25T03:33:45;8.10;99.90
11474;DHT22;5793;52.238;13.438;2024-01-25T03:36:14;8.00;99.90
11474;DHT22;5793;52.238;13.438;2024-01-25T03:38:42;8.00;99.90
11474;DHT22;5793;52.238;13.438;2024-01-25T03:41:10;8.00;99.90
11474;DHT22;5793;52.238;13.438;2024-01-25T03:43:38;8.00;99.90
11474;DHT22;5793;52.238;13.438;2024-01-25T03:46:10;8.00;99.90
11474;DHT22;5793;52.238;13.438;2024-01-25T03:48:38;8.10;99.90
11474;DHT22;5793;52.238;13.438;2024-01-25T03:51:08;8.10;99.90
11474;DHT22;5793;52.238;13.438;2024-01-25T03:53:36;8.10;99.90
11474;DHT22;5793;52.238;13.438;2024-01-25T03:56:09;8.10;99.90
11474;DHT22;5793;52.238;13.438;2024-01-25T03:58:37;8.00;99.90
11474;DHT22;5793;52.238;13.438;2024-01-25T04:01:05;8.00;99.90
11474;DHT22;5793;52.238;13.438;2024-01-25T04:03:33;8.00;99.90
11474;DHT22;5793;52.238;13.438;2024-01-25T04:06:01;8.00;99.90
11474;DHT22;5793;52.238;13.438;2024-01-25T04:08:30;8.00;99.90
11474;DHT22;5793;52.238;13.438;2024-01-25T04:10:58;7.90;99.90
11474;DHT22;5793;52.238;13.438;2024-01-25T04:13:26;7.90;99.90
11474;DHT22;5793;52.238;13.438;2024-01-25T04:15:54;7.90;99.90
11474;DHT22;5793;52.238;13.438;2024-01-25T04:18:22;7.90;99.90
11474;DHT22;5793;52.238;13.438;2024-01-25T04:20:50;7.90;99.90
11474;DHT22;5793;52.238;13.438;2024-01-25T04:23:19;7.90;99.90
11474;DHT22;5793;52.238;13.438;2024-01-25T04:25:48;7.90;99.90
11474;DHT22;5793;52.238;13.438;2024-01-25T04:28:16;7.90;99.90
11474;DHT22;5793;52.238;13.438;2024-01-25T04:30:43;7.90;99.90
11474;DHT22;5793;52.238;13.438;2024-01-25T04:33:11;7.90;99.90
11474;DHT22;5793;52.238;13.438;2024-01-25T04:35:39;7.90;99.90
11474;DHT22;5793;52.238;13.438;2024-01-25T04:38:07;8.00;99.90
11474;DHT22;5793;52.238;13.438;2024-01-25T04:40:35;7.90;99.90
11474;DHT22;5793;52.238;13.438;2024-01-25T04:43:04;7.90;99.90
11474;DHT22;5793;52.238;13.438;2024-01-25T04:45:32;7.90;99.90
11474;DHT22;5793;52.238;13.438;2024-01-25T04:48:00;7.90;99.90
11474;DHT22;5793;52.238;13.438;2024-01-25T04:50:28;7.90;99.90
11474;DHT22;5793;52.238;13.438;2024-01-25T04:52:56;7.90;99.90
11474;DHT22;5793;52.238;13.438;2024-01-25T04:55:24;7.90;99.90
11474;DHT22;5793;52.238;13.438;2024-01-25T04:57:52;7.90;99.90
11474;DHT22;5793;52.238;13.438;2024-01-25T05:00:22;7.90;99.90
11474;DHT22;5793;52.238;13.438;2024-01-25T05:02:50;7.90;99.90
11474;DHT22;5793;52.238;13.438;2024-01-25T05:05:18;7.80;99.90
11474;DHT22;5793;52.238;13.438;2024-01-25T05:07:46;7.80;99.90
11474;DHT22;5793;52.238;13.438;2024-01-25T05:10:14;7.80;99.90
11474;DHT22;5793;52.238;13.438;2024-01-25T05:12:42;7.90;99.90
11474;DHT22;5793;52.238;13.438;2024-01-25T05:15:10;7.80;99.90
11474;DHT22;5793;52.238;13.438;2024-01-25T05:17:40;7.90;99.90
11474;DHT22;5793;52.238;13.438;2024-01-25T05:20:08;7.80;99.90
11474;DHT22;5793;52.238;13.438;2024-01-25T05:22:36;7.80;99.90
11474;DHT22;5793;52.238;13.438;2024-01-25T05:25:07;7.70;99.90
11474;DHT22;5793;52.238;13.438;2024-01-25T05:27:36;7.80;99.90
11474;DHT22;5793;52.238;13.438;2024-01-25T05:30:05;7.80;99.90
11474;DHT22;5793;52.238;13.438;2024-01-25T05:32:34;7.80;99.90
11474;DHT22;5793;52.238;13.438;2024-01-25T05:35:04;7.70;99.90
11474;DHT22;5793;52.238;13.438;2024-01-25T05:37:32;7.70;99.90
11474;DHT22;5793;52.238;13.438;2024-01-25T05:40:00;7.70;99.90
11474;DHT22;5793;52.238;13.438;2024-01-25T05:42:28;7.70;99.90
11474;DHT22;5793;52.238;13.438;2024-01-25T05:44:56;7.70;99.90
11474;DHT22;5793;52.238;13.438;2024-01-25T05:47:24;7.70;99.90
11474;DHT22;5793;52.238;13.438;2024-01-25T05:49:52;7.70;99.90
11474;DHT22;5793;52.238;13.438;2024-01-25T05:52:21;7.70;99.90
11474;DHT22;5793;52.238;13.438;2024-01-25T05:54:50;7.70;99.90
11474;DHT22;5793;52.238;13.438;2024-01-25T05:57:18;7.70;99.90
11474;DHT22;5793;52.238;13.438;2024-01-25T05:59:46;7.70;99.90
11474;DHT22;5793;52.238;13.438;2024-01-25T06:02:14;7.60;99.90
11474;DHT22;5793;52.238;13.438;2024-01-25T06:04:42;7.70;99.90
11474;DHT22;5793;52.238;13.438;2024-01-25T06:07:11;7.70;99.90
11474;DHT22;5793;52.238;13.438;2024-01-25T06:09:40;7.60;99.90
11474;DHT22;5793;52.238;13.438;2024-01-25T06:12:08;7.70;99.90
11474;DHT22;5793;52.238;13.438;2024-01-25T06:14:37;7.70;99.90
11474;DHT22;5793;52.238;13.438;2024-01-25T06:17:04;7.60;99.90
11474;DHT22;5793;52.238;13.438;2024-01-25T06:19:32;7.60;99.90
11474;DHT22;5793;52.238;13.438;2024-01-25T06:22:01;7.60;99.90
11474;DHT22;5793;52.238;13.438;2024-01-25T06:24:29;7.60;99.90
11474;DHT22;5793;52.238;13.438;2024-01-25T06:26:59;7.60;99.90
11474;DHT22;5793;52.238;13.438;2024-01-25T06:29:27;7.60;99.90
11474;DHT22;5793;52.238;13.438;2024-01-25T06:31:55;7.60;99.90
11474;DHT22;5793;52.238;13.438;2024-01-25T06:34:22;7.60;99.90
11474;DHT22;5793;52.238;13.438;2024-01-25T06:36:51;7.60;99.90
11474;DHT22;5793;52.238;13.438;2024-01-25T06:39:18;7.60;99.90
11474;DHT22;5793;52.238;13.438;2024-01-25T06:41:46;7.60;99.90
11474;DHT22;5793;52.238;13.438;2024-01-25T06:44:16;7.60;99.90
11474;DHT22;5793;52.238;13.438;2024-01-25T06:46:44;7.70;99.90
11474;DHT22;5793;52.238;13.438;2024-01-25T06:49:12;7.60;99.90
11474;DHT22;5793;52.238;13.438;2024-01-25T06:51:40;7.60;99.90
11474;DHT22;5793;52.238;13.438;2024-01-25T06:54:08;7.60;99.90
11474;DHT22;5793;52.238;13.438;2024-01-25T06:56:36;7.60;99.90
11474;DHT22;5793;52.238;13.438;2024-01-25T06:59:04;7.60;99.90
11474;DHT22;5793;52.238;13.438;2024-01-25T07:01:33;7.60;99.90
11474;DHT22;5793;52.238;13.438;2024-01-25T07:04:01;7.60;99.90
11474;DHT22;5793;52.238;13.438;2024-01-25T07:06:30;7.60;99.90
11474;DHT22;5793;52.238;13.438;2024-01-25T07:08:58;7.50;99.90
11474;DHT22;5793;52.238;13.438;2024-01-25T07:11:26;7.70;99.90
11474;DHT22;5793;52.238;13.438;2024-01-25T07:13:54;7.70;99.90
11474;DHT22;5793;52.238;13.438;2024-01-25T07:16:22;7.70;99.90
11474;DHT22;5793;52.238;13.438;2024-01-25T07:18:52;7.70;99.90
11474;DHT22;5793;52.238;13.438;2024-01-25T07:21:20;7.70;99.90
11474;DHT22;5793;52.238;13.438;2024-01-25T07:23:47;7.70;99.90
11474;DHT22;5793;52.238;13.438;2024-01-25T07:26:18;7.70;99.90
11474;DHT22;5793;52.238;13.438;2024-01-25T07:28:46;7.70;99.90
11474;DHT22;5793;52.238;13.438;2024-01-25T07:31:14;7.70;99.90
11474;DHT22;5793;52.238;13.438;2024-01-25T07:33:42;7.70;99.90
11474;DHT22;5793;52.238;13.438;2024-01-25T07:36:11;7.70;99.90
11474;DHT22;5793;52.238;13.438;2024-01-25T07:38:42;7.60;99.90
11474;DHT22;5793;52.238;13.438;2024-01-25T07:41:10;7.70;99.90
11474;DHT22;5793;52.238;13.438;2024-01-25T07:43:38;7.70;99.90
11474;DHT22;5793;52.238;13.438;2024-01-25T07:46:05;7.70;99.90
11474;DHT22;5793;52.238;13.438;2024-01-25T07:48:34;7.60;99.90
11474;DHT22;5793;52.238;13.438;2024-01-25T07:51:02;7.70;99.90
11474;DHT22;5793;52.238;13.438;2024-01-25T07:53:31;7.70;99.90
11474;DHT22;5793;52.238;13.438;2024-01-25T07:55:59;7.70;99.90
11474;DHT22;5793;52.238;13.438;2024-01-25T07:58:26;7.70;99.90
11474;DHT22;5793;52.238;13.438;2024-01-25T08:00:57;7.80;99.90
11474;DHT22;5793;52.238;13.438;2024-01-25T08:03:25;7.70;99.90
11474;DHT22;5793;52.238;13.438;2024-01-25T08:05:53;7.70;99.90
11474;DHT22;5793;52.238;13.438;2024-01-25T08:08:21;7.70;99.90
11474;DHT22;5793;52.238;13.438;2024-01-25T08:10:50;7.70;99.90
11474;DHT22;5793;52.238;13.438;2024-01-25T08:13:18;7.70;99.90
11474;DHT22;5793;52.238;13.438;2024-01-25T08:15:45;7.70;99.90
11474;DHT22;5793;52.238;13.438;2024-01-25T08:18:13;7.80;99.90
11474;DHT22;5793;52.238;13.438;2024-01-25T08:20:41;7.80;99.90
11474;DHT22;5793;52.238;13.438;2024-01-25T08:23:10;7.80;99.90
11474;DHT22;5793;52.238;13.438;2024-01-25T08:25:37;8.00;99.90
11474;DHT22;5793;52.238;13.438;2024-01-25T08:28:07;7.90;99.90
11474;DHT22;5793;52.238;13.438;2024-01-25T08:30:35;7.90;99.90
11474;DHT22;5793;52.238;13.438;2024-01-25T08:33:06;7.90;99.90
11474;DHT22;5793;52.238;13.438;2024-01-25T08:35:34;7.90;99.90
11474;DHT22;5793;52.238;13.438;2024-01-25T08:38:03;8.00;99.90
11474;DHT22;5793;52.238;13.438;2024-01-25T08:40:31;8.00;99.90
11474;DHT22;5793;52.238;13.438;2024-01-25T08:42:59;8.00;99.90
11474;DHT22;5793;52.238;13.438;2024-01-25T08:45:28;8.10;99.90
11474;DHT22;5793;52.238;13.438;2024-01-25T08:47:55;8.10;99.90
11474;DHT22;5793;52.238;13.438;2024-01-25T08:50:23;8.20;99.90
11474;DHT22;5793;52.238;13.438;2024-01-25T08:52:53;8.20;99.90
11474;DHT22;5793;52.238;13.438;2024-01-25T08:55:21;8.20;99.90
11474;DHT22;5793;52.238;13.438;2024-01-25T08:57:50;8.30;99.90
11474;DHT22;5793;52.238;13.438;2024-01-25T09:00:18;8.20;99.90
11474;DHT22;5793;52.238;13.438;2024-01-25T09:02:47;8.20;99.90
11474;DHT22;5793;52.238;13.438;2024-01-25T09:05:15;8.10;99.90
11474;DHT22;5793;52.238;13.438;2024-01-25T09:07:43;8.20;99.90
11474;DHT22;5793;52.238;13.438;2024-01-25T09:10:11;8.20;99.90
11474;DHT22;5793;52.238;13.438;2024-01-25T09:12:40;8.20;99.90
11474;DHT22;5793;52.238;13.438;2024-01-25T09:15:09;8.20;99.90
11474;DHT22;5793;52.238;13.438;2024-01-25T09:17:37;8.30;99.90
11474;DHT22;5793;52.238;13.438;2024-01-25T09:20:08;8.50;99.90
11474;DHT22;5793;52.238;13.438;2024-01-25T09:22:38;8.70;99.90
11474;DHT22;5793;52.238;13.438;2024-01-25T09:25:06;8.80;99.90
11474;DHT22;5793;52.238;13.438;2024-01-25T09:27:36;8.80;99.90
11474;DHT22;5793;52.238;13.438;2024-01-25T09:30:06;8.80;99.90
11474;DHT22;5793;52.238;13.438;2024-01-25T09:32:34;8.70;99.90
11474;DHT22;5793;52.238;13.438;2024-01-25T09:35:02;8.60;99.90
11474;DHT22;5793;52.238;13.438;2024-01-25T09:37:32;8.60;99.90
11474;DHT22;5793;52.238;13.438;2024-01-25T09:40:00;8.70;99.90
11474;DHT22;5793;52.238;13.438;2024-01-25T09:42:28;8.70;99.90
11474;DHT22;5793;52.238;13.438;2024-01-25T09:44:56;8.60;99.90
11474;DHT22;5793;52.238;13.438;2024-01-25T09:47:24;8.60;99.90
11474;DHT22;5793;52.238;13.438;2024-01-25T09:49:52;8.60;99.90
11474;DHT22;5793;52.238;13.438;2024-01-25T09:52:22;8.50;99.90
11474;DHT22;5793;52.238;13.438;2024-01-25T09:54:54;8.50;99.90
11474;DHT22;5793;52.238;13.438;2024-01-25T09:57:24;8.50;99.90
11474;DHT22;5793;52.238;13.438;2024-01-25T09:59:55;8.60;99.90
11474;DHT22;5793;52.238;13.438;2024-01-25T10:02:23;8.70;99.90
11474;DHT22;5793;52.238;13.438;2024-01-25T10:04:51;8.60;99.90
11474;DHT22;5793;52.238;13.438;2024-01-25T10:07:35;8.70;99.90
11474;DHT22;5793;52.238;13.438;2024-01-25T10:10:05;8.60;99.90
11474;DHT22;5793;52.238;13.438;2024-01-25T10:12:33;8.60;99.90
11474;DHT22;5793;52.238;13.438;2024-01-25T10:15:03;8.50;99.90
11474;DHT22;5793;52.238;13.438;2024-01-25T10:17:31;8.50;99.90
11474;DHT22;5793;52.238;13.438;2024-01-25T10:20:19;8.50;99.90
11474;DHT22;5793;52.238;13.438;2024-01-25T10:22:51;8.50;99.90
11474;DHT22;5793;52.238;13.438;2024-01-25T10:25:25;8.50;99.90
11474;DHT22;5793;52.238;13.438;2024-01-25T10:27:53;8.70;99.90
11474;DHT22;5793;52.238;13.438;2024-01-25T10:30:21;8.70;99.90
11474;DHT22;5793;52.238;13.438;2024-01-25T10:32:50;8.60;99.90
11474;DHT22;5793;52.238;13.438;2024-01-25T10:35:20;8.60;99.90
11474;DHT22;5793;52.238;13.438;2024-01-25T10:37:51;8.70;99.90
11474;DHT22;5793;52.238;13.438;2024-01-25T10:40:19;8.70;99.90
11474;DHT22;5793;52.238;13.438;2024-01-25T10:42:49;8.70;99.90
11474;DHT22;5793;52.238;13.438;2024-01-25T10:45:18;8.60;99.90
11474;DHT22;5793;52.238;13.438;2024-01-25T10:47:48;8.70;99.90
11474;DHT22;5793;52.238;13.438;2024-01-25T10:50:16;8.70;99.90
11474;DHT22;5793;52.238;13.438;2024-01-25T10:52:45;8.70;99.90
11474;DHT22;5793;52.238;13.438;2024-01-25T10:55:14;9.00;99.90
11474;DHT22;5793;52.238;13.438;2024-01-25T10:57:44;9.00;99.90
11474;DHT22;5793;52.238;13.438;2024-01-25T11:00:15;9.10;99.90
11474;DHT22;5793;52.238;13.438;2024-01-25T11:02:44;9.00;99.90
11474;DHT22;5793;52.238;13.438;2024-01-25T11:05:14;9.00;99.90
11474;DHT22;5793;52.238;13.438;2024-01-25T11:07:43;9.10;99.90
11474;DHT22;5793;52.238;13.438;2024-01-25T11:10:16;9.10;99.90
11474;DHT22;5793;52.238;13.438;2024-01-25T11:12:49;9.10;99.90
11474;DHT22;5793;52.238;13.438;2024-01-25T11:15:20;9.00;99.90
11474;DHT22;5793;52.238;13.438;2024-01-25T11:17:53;9.10;99.90
11474;DHT22;5793;52.238;13.438;2024-01-25T11:20:26;9.30;99.90
11474;DHT22;5793;52.238;13.438;2024-01-25T11:22:57;9.40;99.90
11474;DHT22;5793;52.238;13.438;2024-01-25T11:25:29;9.50;99.90
11474;DHT22;5793;52.238;13.438;2024-01-25T11:27:58;9.60;99.90
11474;DHT22;5793;52.238;13.438;2024-01-25T11:30:29;9.70;99.90
11474;DHT22;5793;52.238;13.438;2024-01-25T11:32:57;9.60;99.90
11474;DHT22;5793;52.238;13.438;2024-01-25T11:35:25;9.60;99.90
11474;DHT22;5793;52.238;13.438;2024-01-25T11:37:54;9.70;99.90
11474;DHT22;5793;52.238;13.438;2024-01-25T11:40:22;9.60;99.90
11474;DHT22;5793;52.238;13.438;2024-01-25T11:42:50;9.60;99.90
11474;DHT22;5793;52.238;13.438;2024-01-25T11:45:18;9.50;99.90
11474;DHT22;5793;52.238;13.438;2024-01-25T11:47:47;9.40;99.90
11474;DHT22;5793;52.238;13.438;2024-01-25T11:50:16;9.40;99.90
11474;DHT22;5793;52.238;13.438;2024-01-25T11:52:44;9.30;99.90
11474;DHT22;5793;52.238;13.438;2024-01-25T11:55:12;9.20;99.90
11474;DHT22;5793;52.238;13.438;2024-01-25T11:57:40;9.20;99.90
11474;DHT22;5793;52.238;13.438;2024-01-25T12:00:10;9.20;99.90
11474;DHT22;5793;52.238;13.438;2024-01-25T12:02:40;9.10;99.90
11474;DHT22;5793;52.238;13.438;2024-01-25T12:05:10;9.10;99.90
11474;DHT22;5793;52.238;13.438;2024-01-25T12:07:39;9.10;99.90
11474;DHT22;5793;52.238;13.438;2024-01-25T12:10:10;9.00;99.90
11474;DHT22;5793;52.238;13.438;2024-01-25T12:12:42;9.00;99.90
11474;DHT22;5793;52.238;13.438;2024-01-25T12:15:10;9.00;99.90
11474;DHT22;5793;52.238;13.438;2024-01-25T12:17:39;9.00;99.90
11474;DHT22;5793;52.238;13.438;2024-01-25T12:20:10;9.10;99.90
11474;DHT22;5793;52.238;13.438;2024-01-25T12:22:39;9.10;99.90
11474;DHT22;5793;52.238;13.438;2024-01-25T12:25:08;9.10;99.90
11474;DHT22;5793;52.238;13.438;2024-01-25T12:27:36;9.20;99.90
11474;DHT22;5793;52.238;13.438;2024-01-25T12:30:08;9.20;99.90
11474;DHT22;5793;52.238;13.438;2024-01-25T12:32:36;9.10;99.90
11474;DHT22;5793;52.238;13.438;2024-01-25T12:35:05;9.10;99.90
11474;DHT22;5793;52.238;13.438;2024-01-25T12:37:34;9.20;99.90
11474;DHT22;5793;52.238;13.438;2024-01-25T12:40:03;9.20;99.90
11474;DHT22;5793;52.238;13.438;2024-01-25T12:42:32;9.30;99.90
11474;DHT22;5793;52.238;13.438;2024-01-25T12:45:00;9.40;99.90
11474;DHT22;5793;52.238;13.438;2024-01-25T12:47:28;9.30;99.90
11474;DHT22;5793;52.238;13.438;2024-01-25T12:49:56;9.40;99.90
11474;DHT22;5793;52.238;13.438;2024-01-25T12:52:29;9.40;99.90
11474;DHT22;5793;52.238;13.438;2024-01-25T12:54:59;9.40;99.90
11474;DHT22;5793;52.238;13.438;2024-01-25T12:57:30;9.40;99.90
11474;DHT22;5793;52.238;13.438;2024-01-25T12:59:58;9.30;99.90
11474;DHT22;5793;52.238;13.438;2024-01-25T13:02:26;9.20;99.90
11474;DHT22;5793;52.238;13.438;2024-01-25T13:04:54;9.30;99.90
11474;DHT22;5793;52.238;13.438;2024-01-25T13:07:22;9.20;99.90
11474;DHT22;5793;52.238;13.438;2024-01-25T13:09:50;9.20;99.90
11474;DHT22;5793;52.238;13.438;2024-01-25T13:12:19;9.20;99.90
11474;DHT22;5793;52.238;13.438;2024-01-25T13:14:47;9.10;99.90
11474;DHT22;5793;52.238;13.438;2024-01-25T13:17:15;9.00;99.90
11474;DHT22;5793;52.238;13.438;2024-01-25T13:19:43;9.00;99.90
11474;DHT22;5793;52.238;13.438;2024-01-25T13:22:11;9.00;99.90
11474;DHT22;5793;52.238;13.438;2024-01-25T13:24:39;8.90;99.90
11474;DHT22;5793;52.238;13.438;2024-01-25T13:27:07;8.90;99.90
11474;DHT22;5793;52.238;13.438;2024-01-25T13:29:36;8.90;99.90
11474;DHT22;5793;52.238;13.438;2024-01-25T13:32:04;8.90;99.90
11474;DHT22;5793;52.238;13.438;2024-01-25T13:34:31;8.90;99.90
11474;DHT22;5793;52.238;13.438;2024-01-25T13:36:59;8.80;99.90
11474;DHT22;5793;52.238;13.438;2024-01-25T13:39:27;8.80;99.90
11474;DHT22;5793;52.238;13.438;2024-01-25T13:41:55;8.70;99.90
11474;DHT22;5793;52.238;13.438;2024-01-25T13:44:24;8.70;99.90
11474;DHT22;5793;52.238;13.438;2024-01-25T13:46:53;8.60;99.90
11474;DHT22;5793;52.238;13.438;2024-01-25T13:49:22;8.50;99.90
11474;DHT22;5793;52.238;13.438;2024-01-25T13:51:50;8.60;99.90
11474;DHT22;5793;52.238;13.438;2024-01-25T13:54:18;8.60;99.90
11474;DHT22;5793;52.238;13.438;2024-01-25T13:56:46;8.50;99.90
11474;DHT22;5793;52.238;13.438;2024-01-25T13:59:14;8.50;99.90
11474;DHT22;5793;52.238;13.438;2024-01-25T14:01:42;8.50;99.90
11474;DHT22;5793;52.238;13.438;2024-01-25T14:04:11;8.60;99.90
11474;DHT22;5793;52.238;13.438;2024-01-25T14:06:40;8.60;99.90
11474;DHT22;5793;52.238;13.438;2024-01-25T14:09:09;8.60;99.90
11474;DHT22;5793;52.238;13.438;2024-01-25T14:11:37;8.60;99.90
11474;DHT22;5793;52.238;13.438;2024-01-25T14:14:05;8.60;99.90
11474;DHT22;5793;52.238;13.438;2024-01-25T14:16:33;8.60;99.90
11474;DHT22;5793;52.238;13.438;2024-01-25T14:19:01;8.50;99.90
11474;DHT22;5793;52.238;13.438;2024-01-25T14:21:31;8.50;99.90
11474;DHT22;5793;52.238;13.438;2024-01-25T14:24:00;8.60;99.90
11474;DHT22;5793;52.238;13.438;2024-01-25T14:26:28;8.50;99.90
11474;DHT22;5793;52.238;13.438;2024-01-25T14:28:56;8.40;99.90
11474;DHT22;5793;52.238;13.438;2024-01-25T14:31:23;8.40;99.90
11474;DHT22;5793;52.238;13.438;2024-01-25T14:33:51;8.40;99.90
11474;DHT22;5793;52.238;13.438;2024-01-25T14:36:19;8.40;99.90
11474;DHT22;5793;52.238;13.438;2024-01-25T14:38:48;8.40;99.90
11474;DHT22;5793;52.238;13.438;2024-01-25T14:41:16;8.30;99.90
11474;DHT22;5793;52.238;13.438;2024-01-25T14:43:44;8.30;99.90
11474;DHT22;5793;52.238;13.438;2024-01-25T14:46:12;8.30;99.90
11474;DHT22;5793;52.238;13.438;2024-01-25T14:48:39;8.20;99.90
11474;DHT22;5793;52.238;13.438;2024-01-25T14:51:07;8.20;99.90
11474;DHT22;5793;52.238;13.438;2024-01-25T14:53:35;8.20;99.90
11474;DHT22;5793;52.238;13.438;2024-01-25T14:56:05;8.20;99.90
11474;DHT22;5793;52.238;13.438;2024-01-25T14:58:33;8.20;99.90
11474;DHT22;5793;52.238;13.438;2024-01-25T15:01:01;8.10;99.90
11474;DHT22;5793;52.238;13.438;2024-01-25T15:03:29;8.10;99.90
11474;DHT22;5793;52.238;13.438;2024-01-25T15:05:56;8.00;99.90
11474;DHT22;5793;52.238;13.438;2024-01-25T15:08:24;8.00;99.90
11474;DHT22;5793;52.238;13.438;2024-01-25T15:10:52;8.00;99.90
11474;DHT22;5793;52.238;13.438;2024-01-25T15:13:21;8.00;99.90
11474;DHT22;5793;52.238;13.438;2024-01-25T15:15:49;8.00;99.90
11474;DHT22;5793;52.238;13.438;2024-01-25T15:18:17;8.00;99.90
11474;DHT22;5793;52.238;13.438;2024-01-25T15:20:46;8.00;99.90
11474;DHT22;5793;52.238;13.438;2024-01-25T15:23:13;7.90;99.90
11474;DHT22;5793;52.238;13.438;2024-01-25T15:25:41;7.90;99.90
11474;DHT22;5793;52.238;13.438;2024-01-25T15:28:09;7.90;99.90
11474;DHT22;5793;52.238;13.438;2024-01-25T15:30:38;7.90;99.90
11474;DHT22;5793;52.238;13.438;2024-01-25T15:33:06;7.90;99.90
11474;DHT22;5793;52.238;13.438;2024-01-25T15:35:34;7.80;99.90
11474;DHT22;5793;52.238;13.438;2024-01-25T15:38:02;7.80;99.90
11474;DHT22;5793;52.238;13.438;2024-01-25T15:40:32;7.70;99.90
11474;DHT22;5793;52.238;13.438;2024-01-25T15:43:00;7.60;99.90
11474;DHT22;5793;52.238;13.438;2024-01-25T15:45:27;7.60;99.90
11474;DHT22;5793;52.238;13.438;2024-01-25T15:47:57;7.60;99.90
11474;DHT22;5793;52.238;13.438;2024-01-25T15:50:25;7.60;99.90
11474;DHT22;5793;52.238;13.438;2024-01-25T15:52:53;7.60;99.90